Time;durP1;ratioP1;P1;durP2;ratioP2;P2;SDS_P1;SDS_P2;PMS_P1;PMS_P2;Temp;Humidity;BMP_temperature;BMP_pressure;BME280_temperature;BME280_humidity;BME280_pressure;Samples;Min_cycle;Max_cycle;Signal;HPM_P1;HPM_P2
2023/11/20 02:36:25;;;;;;;9.25;1.67;;;;;;;;;;5005689;23;20099;-88
2023/11/20 02:38:56;;;;;;;7.68;2.00;;;;;;;;;;4879594;29;20052;-85
2023/11/20 02:41:27;;;;;;;6.28;1.73;;;;;;;;;;4901742;29;20033;-88
2023/11/20 02:43:57;;;;;;;6.00;2.03;;;;;;;;;;4903494;29;20040;-84
2023/11/20 02:46:27;;;;;;;7.15;1.73;;;;;;;;;;4897731;29;20059;-85
2023/11/20 02:48:58;;;;;;;8.38;2.10;;;;;;;;;;4898245;29;20052;-86
2023/11/20 02:51:29;;;;;;;7.05;2.15;;;;;;;;;;4898000;29;20052;-86
2023/11/20 02:53:59;;;;;;;7.13;2.20;;;;;;;;;;4860374;29;20060;-86
2023/11/20 02:56:30;;;;;;;6.63;1.75;;;;;;;;;;4859943;29;20166;-85
2023/11/20 02:59:01;;;;;;;7.35;2.10;;;;;;;;;;4861087;29;20064;-85
2023/11/20 03:01:32;;;;;;;6.20;2.00;;;;;;;;;;4860457;29;20508;-85
2023/11/20 03:04:02;;;;;;;9.55;2.72;;;;;;;;;;4877204;29;20424;-88
2023/11/20 03:06:32;;;;;;;5.22;2.05;;;;;;;;;;4860409;29;20053;-85
2023/11/20 03:09:02;;;;;;;7.80;1.95;;;;;;;;;;4860947;29;20064;-86
2023/11/20 03:11:32;;;;;;;6.80;2.15;;;;;;;;;;4860653;29;20060;-87
2023/11/20 03:14:02;;;;;;;7.65;2.53;;;;;;;;;;4860611;29;20432;-86
2023/11/20 03:16:33;;;;;;;5.00;2.20;;;;;;;;;;4860307;29;20061;-90
2023/11/20 03:19:03;;;;;;;6.53;2.28;;;;;;;;;;4876116;29;20068;-87
2023/11/20 03:21:36;;;;;;;8.35;2.55;;;;;;;;;;4860561;29;20405;-87
2023/11/20 03:24:08;;;;;;;7.80;2.20;;;;;;;;;;4877629;29;20045;-87
2023/11/20 03:26:39;;;;;;;9.88;2.55;;;;;;;;;;4860771;29;20067;-87
2023/11/20 03:29:09;;;;;;;7.20;2.13;;;;;;;;;;4860324;29;20057;-85
2023/11/20 03:31:39;;;;;;;11.02;2.55;;;;;;;;;;4860270;29;20477;-86
2023/11/20 03:34:09;;;;;;;9.35;2.35;;;;;;;;;;4860388;29;20535;-86
2023/11/20 03:36:40;;;;;;;6.38;2.65;;;;;;;;;;4860417;29;20076;-87
2023/11/20 03:39:10;;;;;;;8.38;2.22;;;;;;;;;;4860358;29;20052;-86
2023/11/20 03:41:40;;;;;;;7.35;2.13;;;;;;;;;;4844991;29;20068;-86
2023/11/20 03:44:10;;;;;;;16.08;2.83;;;;;;;;;;4860339;29;20057;-85
2023/11/20 03:46:41;;;;;;;9.10;2.08;;;;;;;;;;4860383;29;20053;-85
2023/11/20 03:49:12;;;;;;;7.20;2.17;;;;;;;;;;4878453;29;20495;-87
2023/11/20 03:51:42;;;;;;;5.85;2.30;;;;;;;;;;4872364;29;20052;-88
2023/11/20 03:54:12;;;;;;;6.63;2.40;;;;;;;;;;4876766;29;20404;-88
2023/11/20 03:56:42;;;;;;;12.32;2.53;;;;;;;;;;4846806;29;20053;-86
2023/11/20 03:59:12;;;;;;;7.40;3.05;;;;;;;;;;4878963;29;20515;-86
2023/11/20 04:01:42;;;;;;;10.85;3.08;;;;;;;;;;4877767;29;20382;-88
2023/11/20 04:04:13;;;;;;;11.52;2.50;;;;;;;;;;4862014;29;20057;-87
2023/11/20 04:06:43;;;;;;;12.55;2.63;;;;;;;;;;4862261;29;20064;-87
2023/11/20 04:09:14;;;;;;;7.97;2.47;;;;;;;;;;4849430;29;20061;-87
2023/11/20 04:11:45;;;;;;;7.30;2.35;;;;;;;;;;4865636;29;20057;-86
2023/11/20 04:14:16;;;;;;;10.38;2.63;;;;;;;;;;4865528;29;20064;-87
2023/11/20 04:16:46;;;;;;;9.90;2.97;;;;;;;;;;4866651;29;20052;-88
2023/11/20 04:19:18;;;;;;;10.48;2.40;;;;;;;;;;4865496;29;20057;-88
2023/11/20 04:21:49;;;;;;;11.18;2.70;;;;;;;;;;4866146;29;20057;-86
2023/11/20 04:24:19;;;;;;;8.15;2.67;;;;;;;;;;4865740;29;20076;-86
2023/11/20 04:26:49;;;;;;;13.85;3.25;;;;;;;;;;4882680;29;20661;-86
2023/11/20 04:29:19;;;;;;;10.48;3.10;;;;;;;;;;4850529;29;20065;-86
2023/11/20 04:31:51;;;;;;;10.63;2.72;;;;;;;;;;4865660;29;20060;-86
2023/11/20 04:34:21;;;;;;;8.95;2.92;;;;;;;;;;4880257;29;20057;-86
2023/11/20 04:36:51;;;;;;;9.52;3.83;;;;;;;;;;4880576;29;20079;-86
2023/11/20 04:39:22;;;;;;;9.68;2.92;;;;;;;;;;4881922;29;20075;-86
2023/11/20 04:41:52;;;;;;;7.22;2.95;;;;;;;;;;4865722;29;20076;-87
2023/11/20 04:44:21;;;;;;;8.60;3.03;;;;;;;;;;4880252;29;20064;-87
2023/11/20 04:46:52;;;;;;;6.93;2.72;;;;;;;;;;4864697;29;20052;-86
2023/11/20 04:49:22;;;;;;;9.82;3.30;;;;;;;;;;4881157;29;20052;-86
2023/11/20 04:51:55;;;;;;;17.40;3.47;;;;;;;;;;4881817;29;20473;-86
2023/11/20 04:54:25;;;;;;;10.00;3.10;;;;;;;;;;4865443;29;20048;-87
2023/11/20 04:56:58;;;;;;;7.80;2.60;;;;;;;;;;4881795;29;20056;-86
2023/11/20 04:59:29;;;;;;;9.98;2.95;;;;;;;;;;4880777;29;20465;-87
2023/11/20 05:01:59;;;;;;;6.22;2.83;;;;;;;;;;4865277;29;20053;-87
2023/11/20 05:04:29;;;;;;;11.18;3.33;;;;;;;;;;4880131;29;20595;-87
2023/11/20 05:06:59;;;;;;;9.27;2.83;;;;;;;;;;4849725;29;20157;-87
2023/11/20 05:09:29;;;;;;;6.38;2.90;;;;;;;;;;4864999;29;20061;-87
2023/11/20 05:12:00;;;;;;;9.73;3.83;;;;;;;;;;4881135;29;20057;-87
2023/11/20 05:14:53;;;;;;;6.60;2.97;;;;;;;;;;4852655;29;20049;-88
2023/11/20 05:17:24;;;;;;;12.60;3.15;;;;;;;;;;4863608;29;20053;-87
2023/11/20 05:19:57;;;;;;;9.77;2.97;;;;;;;;;;4863690;29;20057;-87
2023/11/20 05:22:27;;;;;;;10.52;3.25;;;;;;;;;;4849866;29;20057;-87
2023/11/20 05:24:58;;;;;;;9.02;3.03;;;;;;;;;;4864971;29;20053;-87
2023/11/20 05:27:28;;;;;;;10.23;3.45;;;;;;;;;;4863649;29;20053;-88
2023/11/20 05:29:59;;;;;;;15.23;3.22;;;;;;;;;;4879453;29;20412;-88
2023/11/20 05:32:32;;;;;;;11.18;3.35;;;;;;;;;;4865464;29;20061;-87
2023/11/20 05:35:02;;;;;;;8.88;2.67;;;;;;;;;;4848655;29;20060;-85
2023/11/20 05:37:34;;;;;;;8.77;3.08;;;;;;;;;;4881170;29;20048;-87
2023/11/20 05:40:05;;;;;;;8.45;3.60;;;;;;;;;;4848860;29;20053;-89
2023/11/20 05:42:36;;;;;;;14.00;3.88;;;;;;;;;;4849216;29;20053;-88
2023/11/20 05:45:09;;;;;;;9.43;3.08;;;;;;;;;;4849153;29;20057;-88
2023/11/20 05:47:39;;;;;;;8.75;3.63;;;;;;;;;;4849516;29;20440;-87
2023/11/20 05:50:10;;;;;;;10.65;3.17;;;;;;;;;;4864122;29;20158;-86
2023/11/20 05:52:42;;;;;;;6.35;2.42;;;;;;;;;;4879394;29;20053;-86
2023/11/20 05:55:12;;;;;;;7.15;2.67;;;;;;;;;;4863820;29;20057;-86
2023/11/20 05:57:43;;;;;;;7.47;2.70;;;;;;;;;;4864451;29;20049;-86
2023/11/20 06:00:13;;;;;;;8.88;3.35;;;;;;;;;;4879118;29;20064;-87
2023/11/20 06:02:45;;;;;;;8.77;2.78;;;;;;;;;;4863508;29;20388;-86
2023/11/20 06:05:16;;;;;;;9.50;3.25;;;;;;;;;;4848594;29;20053;-85
2023/11/20 06:07:47;;;;;;;11.55;2.90;;;;;;;;;;4863491;29;20068;-86
2023/11/20 06:10:17;;;;;;;8.00;3.15;;;;;;;;;;4880791;29;20049;-86
2023/11/20 06:12:46;;;;;;;7.43;2.72;;;;;;;;;;4880376;29;20060;-87
2023/11/20 06:15:17;;;;;;;15.80;3.45;;;;;;;;;;4863655;29;20405;-86
2023/11/20 06:17:48;;;;;;;5.95;3.10;;;;;;;;;;4847396;29;20053;-86
2023/11/20 06:20:18;;;;;;;7.90;2.88;;;;;;;;;;4863037;29;20061;-87
2023/11/20 06:22:48;;;;;;;8.05;3.30;;;;;;;;;;4862859;29;20056;-86
2023/11/20 06:25:18;;;;;;;10.82;3.15;;;;;;;;;;4878927;29;20053;-86
2023/11/20 06:27:48;;;;;;;7.80;3.13;;;;;;;;;;4863036;29;20405;-85
2023/11/20 06:30:18;;;;;;;10.73;3.35;;;;;;;;;;4879842;29;20041;-84
2023/11/20 06:32:48;;;;;;;10.25;3.58;;;;;;;;;;4877809;29;20060;-84
2023/11/20 06:35:19;;;;;;;7.93;3.20;;;;;;;;;;4863341;29;20068;-85
2023/11/20 06:37:50;;;;;;;11.75;3.90;;;;;;;;;;4880031;29;20373;-86
2023/11/20 06:40:21;;;;;;;11.48;2.67;;;;;;;;;;4862857;29;20061;-86
2023/11/20 06:42:51;;;;;;;8.93;3.42;;;;;;;;;;4880379;29;20056;-84
2023/11/20 06:45:21;;;;;;;6.90;2.78;;;;;;;;;;4879973;29;20493;-84
2023/11/20 06:47:51;;;;;;;14.00;3.70;;;;;;;;;;4862183;29;20064;-86
2023/11/20 06:50:21;;;;;;;9.30;3.88;;;;;;;;;;4878600;29;20416;-86
2023/11/20 06:52:52;;;;;;;9.63;3.88;;;;;;;;;;4862710;29;20060;-85
2023/11/20 06:55:26;;;;;;;11.05;3.45;;;;;;;;;;4879736;29;20071;-86
2023/11/20 06:57:56;;;;;;;9.13;4.07;;;;;;;;;;4863633;29;20052;-88
2023/11/20 07:00:26;;;;;;;8.48;3.72;;;;;;;;;;4884382;29;20060;-86
2023/11/20 07:02:56;;;;;;;9.80;3.42;;;;;;;;;;4885748;29;20083;-84
2023/11/20 07:05:27;;;;;;;11.73;3.30;;;;;;;;;;4870791;29;20059;-86
2023/11/20 07:08:00;;;;;;;9.10;3.67;;;;;;;;;;4877512;29;20053;-85
2023/11/20 07:10:30;;;;;;;8.10;3.20;;;;;;;;;;4879595;29;20057;-84
2023/11/20 07:13:01;;;;;;;7.18;3.20;;;;;;;;;;4863131;29;20061;-84
2023/11/20 07:15:33;;;;;;;9.10;3.20;;;;;;;;;;4863046;29;20519;-85
2023/11/20 07:18:03;;;;;;;10.25;3.63;;;;;;;;;;4847316;29;20076;-85
2023/11/20 07:20:35;;;;;;;10.63;4.05;;;;;;;;;;4861648;29;20064;-86
2023/11/20 07:23:05;;;;;;;8.55;3.15;;;;;;;;;;4877403;29;20061;-85
2023/11/20 07:25:36;;;;;;;6.50;3.55;;;;;;;;;;4860235;29;20057;-85
2023/11/20 07:28:07;;;;;;;7.38;3.28;;;;;;;;;;4878153;29;20041;-85
2023/11/20 07:30:39;;;;;;;7.97;3.53;;;;;;;;;;4862849;29;20381;-84
2023/11/20 07:33:08;;;;;;;9.82;3.80;;;;;;;;;;4861508;29;20053;-85
2023/11/20 07:35:38;;;;;;;8.50;3.53;;;;;;;;;;4879167;29;20057;-85
2023/11/20 07:38:09;;;;;;;12.40;4.20;;;;;;;;;;4862876;29;20515;-86
2023/11/20 07:40:41;;;;;;;10.45;3.47;;;;;;;;;;4879054;29;20049;-85
2023/11/20 07:43:11;;;;;;;8.05;3.50;;;;;;;;;;4877514;29;20052;-86
2023/11/20 07:45:41;;;;;;;10.68;3.55;;;;;;;;;;4879050;29;20048;-86
2023/11/20 07:48:11;;;;;;;8.48;3.25;;;;;;;;;;4862560;29;20049;-85
2023/11/20 07:50:41;;;;;;;11.80;3.42;;;;;;;;;;4877367;29;20053;-85
2023/11/20 07:53:11;;;;;;;9.13;3.80;;;;;;;;;;4876987;29;20053;-85
2023/11/20 07:55:41;;;;;;;8.50;3.72;;;;;;;;;;4876913;29;20057;-85
2023/11/20 07:58:11;;;;;;;12.18;3.40;;;;;;;;;;4862021;29;20402;-86
2023/11/20 08:00:41;;;;;;;9.48;3.42;;;;;;;;;;4876667;29;20060;-85
2023/11/20 08:03:11;;;;;;;9.20;3.25;;;;;;;;;;4878783;29;20092;-86
2023/11/20 08:05:44;;;;;;;8.73;3.30;;;;;;;;;;4862943;29;20064;-85
2023/11/20 08:08:18;;;;;;;8.48;3.97;;;;;;;;;;4900600;29;20048;-85
2023/11/20 08:10:47;;;;;;;12.63;3.58;;;;;;;;;;4899788;29;20052;-86
2023/11/20 08:13:18;;;;;;;8.02;3.85;;;;;;;;;;4916569;29;20048;-85
2023/11/20 08:15:49;;;;;;;13.25;3.78;;;;;;;;;;4900225;29;20407;-84
2023/11/20 08:18:21;;;;;;;9.45;3.70;;;;;;;;;;4900237;29;20067;-86
2023/11/20 08:20:51;;;;;;;9.77;4.03;;;;;;;;;;4899013;29;20525;-85
2023/11/20 08:23:23;;;;;;;11.18;3.33;;;;;;;;;;4898933;29;20048;-85
2023/11/20 08:25:54;;;;;;;9.55;3.63;;;;;;;;;;4916097;29;20055;-85
2023/11/20 08:28:24;;;;;;;9.65;3.78;;;;;;;;;;4916248;29;20056;-83
2023/11/20 08:30:55;;;;;;;;;;;;;;;;;;4883694;29;20048;-85
2023/11/20 08:33:26;;;;;;;9.70;3.88;;;;;;;;;;4916321;29;19934;-85
2023/11/20 08:35:57;;;;;;;7.65;3.20;;;;;;;;;;4915603;29;20059;-86
2023/11/20 08:38:28;;;;;;;6.72;2.92;;;;;;;;;;4899541;29;20063;-85
2023/11/20 08:41:00;;;;;;;9.57;3.33;;;;;;;;;;4916052;29;20048;-84
2023/11/20 08:43:31;;;;;;;11.07;3.25;;;;;;;;;;4898836;29;20503;-85
2023/11/20 08:46:02;;;;;;;10.02;3.53;;;;;;;;;;4916109;29;20375;-84
2023/11/20 08:48:43;;;;;;;12.20;3.78;;;;;;;;;;4884962;29;20048;-85
2023/11/20 08:51:14;;;;;;;10.48;3.70;;;;;;;;;;4916441;29;20055;-85
2023/11/20 08:53:44;;;;;;;15.25;4.25;;;;;;;;;;4898430;29;20439;-84
2023/11/20 08:56:14;;;;;;;8.30;3.72;;;;;;;;;;4886613;29;20059;-84
2023/11/20 08:58:45;;;;;;;8.85;4.25;;;;;;;;;;4902528;29;20048;-85
2023/11/20 09:01:16;;;;;;;11.52;4.18;;;;;;;;;;4919335;29;20056;-85
2023/11/20 09:03:48;;;;;;;10.73;4.20;;;;;;;;;;4919256;29;20471;-85
2023/11/20 09:06:18;;;;;;;8.57;4.25;;;;;;;;;;4886360;29;20056;-85
2023/11/20 09:08:49;;;;;;;6.13;3.15;;;;;;;;;;4901026;29;20353;-86
2023/11/20 09:11:19;;;;;;;10.50;3.78;;;;;;;;;;4918592;29;20052;-84
2023/11/20 09:13:51;;;;;;;11.85;4.03;;;;;;;;;;4902119;29;20403;-85
2023/11/20 09:16:21;;;;;;;9.07;3.45;;;;;;;;;;4885975;29;20052;-85
2023/11/20 09:18:52;;;;;;;9.32;3.25;;;;;;;;;;4901645;29;20056;-84
2023/11/20 09:21:23;;;;;;;8.80;4.05;;;;;;;;;;4900872;29;20056;-85
2023/11/20 09:23:53;;;;;;;8.75;3.70;;;;;;;;;;4902365;29;20423;-86
2023/11/20 09:26:23;;;;;;;10.57;3.70;;;;;;;;;;4901863;29;20059;-86
2023/11/20 09:28:54;;;;;;;7.03;3.22;;;;;;;;;;4902139;29;20053;-86
2023/11/20 09:31:26;;;;;;;9.63;3.50;;;;;;;;;;4918436;29;20044;-85
2023/11/20 09:33:59;;;;;;;13.50;4.32;;;;;;;;;;4900843;29;20056;-85
2023/11/20 09:36:31;;;;;;;9.07;3.65;;;;;;;;;;4919123;29;20048;-85
2023/11/20 09:39:01;;;;;;;8.88;3.80;;;;;;;;;;4901072;29;20411;-84
2023/11/20 09:41:37;;;;;;;12.07;3.90;;;;;;;;;;4900620;29;20060;-84
2023/11/20 09:44:10;;;;;;;7.82;3.60;;;;;;;;;;4902019;29;20523;-84
2023/11/20 09:46:47;;;;;;;9.07;3.50;;;;;;;;;;4918719;29;20044;-85
2023/11/20 09:49:25;;;;;;;11.18;3.67;;;;;;;;;;4918687;29;20098;-86
2023/11/20 09:51:59;;;;;;;7.70;3.08;;;;;;;;;;4918540;29;20067;-87
2023/11/20 09:54:34;;;;;;;6.70;3.38;;;;;;;;;;4901087;29;20534;-84
2023/11/20 09:57:11;;;;;;;8.50;3.42;;;;;;;;;;4902151;29;20051;-84
2023/11/20 09:59:42;;;;;;;11.35;3.60;;;;;;;;;;4918508;29;20395;-85
2023/11/20 10:02:13;;;;;;;9.82;4.38;;;;;;;;;;4901593;29;20052;-85
2023/11/20 10:04:46;;;;;;;8.35;3.03;;;;;;;;;;4900191;29;20176;-85
2023/11/20 10:07:16;;;;;;;;;;;;;;;;;;4900668;29;20076;-84
2023/11/20 10:09:54;;;;;;;10.88;3.65;;;;;;;;;;4918236;29;19923;-84
2023/11/20 10:12:27;;;;;;;11.75;3.00;;;;;;;;;;4901599;29;20051;-85
2023/11/20 10:15:00;;;;;;;10.63;3.40;;;;;;;;;;4900380;29;20044;-87
2023/11/20 10:17:31;;;;;;;6.03;2.80;;;;;;;;;;4900415;29;20060;-88
2023/11/20 10:20:09;;;;;;;7.65;3.17;;;;;;;;;;4901461;29;20059;-86
2023/11/20 10:22:41;;;;;;;11.05;3.17;;;;;;;;;;4900166;29;20503;-86
2023/11/20 10:25:11;;;;;;;7.55;3.08;;;;;;;;;;4918068;29;20040;-86
2023/11/20 10:27:42;;;;;;;8.23;3.10;;;;;;;;;;4900711;29;20060;-87
2023/11/20 10:30:13;;;;;;;6.55;3.17;;;;;;;;;;4915692;29;20360;-87
2023/11/20 10:32:43;;;;;;;9.93;3.47;;;;;;;;;;4878476;29;20056;-88
2023/11/20 10:35:15;;;;;;;7.15;3.28;;;;;;;;;;4881596;29;20060;-88
2023/11/20 10:38:06;;;;;;;7.47;3.55;;;;;;;;;;4863599;29;20052;-88
2023/11/20 10:40:41;;;;;;;10.50;3.63;;;;;;;;;;4897916;29;20052;-86
2023/11/20 10:43:11;;;;;;;8.55;3.63;;;;;;;;;;4875276;29;20049;-89
2023/11/20 10:45:42;;;;;;;9.20;4.20;;;;;;;;;;4881128;29;20416;-88
2023/11/20 10:48:16;;;;;;;9.05;4.03;;;;;;;;;;4878159;29;20056;-88
